createdAt,value
2024-02-16T00:01:24.216Z,7.33
2024-02-16T00:03:50.693Z,9.87
2024-02-16T00:06:17.229Z,10.70
2024-02-16T00:08:43.743Z,9.97
2024-02-16T00:11:10.880Z,13.17
2024-02-16T00:13:38.346Z,11.63
2024-02-16T00:16:05.223Z,13.67
2024-02-16T00:18:31.754Z,12.67
2024-02-16T00:20:58.375Z,13.67
2024-02-16T00:23:26.212Z,13.50
2024-02-16T00:25:52.706Z,12.70
2024-02-16T00:28:19.754Z,13.33
2024-02-16T00:30:48.020Z,13.53
2024-02-16T00:33:14.536Z,9.73
2024-02-16T00:35:41.337Z,9.00
2024-02-16T00:38:07.770Z,13.33
2024-02-16T00:40:37.192Z,10.50
2024-02-16T00:43:04.510Z,11.07
2024-02-16T00:45:31.088Z,9.37
2024-02-16T00:47:58.308Z,6.00
2024-02-16T00:50:24.939Z,7.93
2024-02-16T00:52:51.354Z,11.97
2024-02-16T00:55:17.787Z,8.10
2024-02-16T00:57:44.257Z,6.80
2024-02-16T01:00:11.568Z,7.50
2024-02-16T01:02:38.135Z,13.60
2024-02-16T01:05:05.655Z,14.73
2024-02-16T01:07:33.382Z,12.03
2024-02-16T01:10:01.052Z,13.43
2024-02-16T01:12:27.550Z,9.17
2024-02-16T01:14:54.072Z,11.27
2024-02-16T01:17:20.528Z,14.07
2024-02-16T01:19:48.017Z,15.33
2024-02-16T01:22:15.090Z,13.23
2024-02-16T01:24:41.571Z,8.13
2024-02-16T01:27:08.084Z,9.00
2024-02-16T01:29:34.587Z,7.20
2024-02-16T01:32:01.082Z,11.13
2024-02-16T01:34:27.799Z,12.50
2024-02-16T01:36:54.278Z,9.60
2024-02-16T01:39:20.744Z,7.63
2024-02-16T01:41:47.231Z,9.33
2024-02-16T01:44:13.989Z,14.00
2024-02-16T01:46:40.563Z,19.00
2024-02-16T01:49:08.936Z,21.67
2024-02-16T01:51:36.320Z,18.30
2024-02-16T01:54:02.948Z,22.87
2024-02-16T01:56:30.296Z,21.97
2024-02-16T01:58:56.764Z,23.07
2024-02-16T02:01:23.611Z,23.47
2024-02-16T02:03:50.200Z,21.30
2024-02-16T02:06:16.928Z,21.67
2024-02-16T02:08:43.492Z,14.47
2024-02-16T02:11:10.281Z,16.23
2024-02-16T02:13:36.792Z,19.60
2024-02-16T02:16:04.513Z,19.70
2024-02-16T02:18:31.095Z,15.80
2024-02-16T02:20:57.800Z,17.73
2024-02-16T02:23:24.284Z,13.33
2024-02-16T02:25:51.418Z,14.93
2024-02-16T02:28:18.038Z,16.27
2024-02-16T02:48:32.624Z,12.83
2024-02-16T02:51:00.867Z,7.87
2024-02-16T02:53:29.910Z,15.60
2024-02-16T02:55:56.322Z,14.37
2024-02-16T02:58:22.747Z,13.90
2024-02-16T03:00:49.183Z,14.57
2024-02-16T03:03:15.712Z,14.70
2024-02-16T03:05:43.803Z,16.23
2024-02-16T03:08:11.909Z,15.87
2024-02-16T03:10:38.817Z,15.67
2024-02-16T03:13:05.214Z,16.17
2024-02-16T03:15:31.671Z,15.67
2024-02-16T03:17:58.253Z,14.40
2024-02-16T03:20:24.746Z,10.40
2024-02-16T03:22:51.199Z,14.20
2024-02-16T03:25:17.740Z,14.20
2024-02-16T03:27:44.584Z,12.27
2024-02-16T03:30:11.678Z,8.80
2024-02-16T03:32:38.800Z,10.17
2024-02-16T03:35:05.654Z,12.60
2024-02-16T03:37:32.074Z,12.53
2024-02-16T03:39:58.806Z,13.50
2024-02-16T03:42:25.308Z,12.20
2024-02-16T03:44:51.773Z,12.53
2024-02-16T03:47:18.249Z,12.80
2024-02-16T03:49:44.893Z,11.80
2024-02-16T03:52:11.502Z,12.10
2024-02-16T03:54:37.965Z,12.73
2024-02-16T03:57:06.271Z,9.90
2024-02-16T03:59:32.736Z,13.30
2024-02-16T04:01:59.161Z,12.37
2024-02-16T04:04:25.638Z,13.10
2024-02-16T04:06:52.170Z,11.80
2024-02-16T04:09:18.651Z,11.27
2024-02-16T04:11:46.770Z,10.20
2024-02-16T04:14:13.210Z,12.47
2024-02-16T04:16:39.694Z,13.03
2024-02-16T04:19:06.373Z,10.23
2024-02-16T04:21:32.958Z,7.80
2024-02-16T04:23:59.512Z,10.00
2024-02-16T04:26:25.978Z,12.03
2024-02-16T04:28:52.458Z,14.80
2024-02-16T04:31:18.843Z,14.00
2024-02-16T04:33:45.521Z,14.00
2024-02-16T04:36:12.149Z,13.47
2024-02-16T04:38:38.640Z,11.20
2024-02-16T04:41:07.929Z,9.77
2024-02-16T04:43:34.713Z,10.97
2024-02-16T04:46:01.748Z,12.83
2024-02-16T04:48:28.690Z,12.33
2024-02-16T04:50:55.231Z,10.37
2024-02-16T04:53:21.665Z,12.47
2024-02-16T04:55:48.582Z,10.03
2024-02-16T04:58:14.980Z,13.97
2024-02-16T05:00:41.549Z,14.07
2024-02-16T05:03:08.426Z,11.77
2024-02-16T05:05:35.063Z,10.90
2024-02-16T05:08:02.043Z,16.33
2024-02-16T05:10:29.123Z,15.83
2024-02-16T05:12:55.559Z,14.53
2024-02-16T05:15:22.059Z,18.33
2024-02-16T05:17:52.266Z,15.97
2024-02-16T05:20:20.515Z,19.40
2024-02-16T05:22:47.684Z,15.87
2024-02-16T05:25:15.167Z,16.77
2024-02-16T05:27:42.169Z,16.33
2024-02-16T05:30:12.096Z,14.47
2024-02-16T05:32:38.817Z,17.43
2024-02-16T05:35:12.528Z,11.77
2024-02-16T05:37:40.468Z,10.63
2024-02-16T05:40:31.060Z,17.27
2024-02-16T05:43:01.479Z,19.43
2024-02-16T05:45:28.159Z,19.27
2024-02-16T05:47:54.979Z,20.07
2024-02-16T05:50:22.533Z,19.00
2024-02-16T05:52:50.888Z,17.43
2024-02-16T05:55:19.760Z,21.43
2024-02-16T05:57:46.850Z,16.67
2024-02-16T06:00:14.564Z,15.73
2024-02-16T06:02:42.101Z,17.70
2024-02-16T06:05:08.554Z,17.37
2024-02-16T06:07:39.081Z,20.63
2024-02-16T06:10:11.486Z,19.27
2024-02-16T06:12:38.306Z,16.80
2024-02-16T06:15:06.225Z,17.47
2024-02-16T06:17:32.767Z,17.80
2024-02-16T06:19:59.315Z,17.20
2024-02-16T06:22:25.785Z,17.57
2024-02-16T06:24:52.256Z,18.80
2024-02-16T06:27:18.761Z,17.33
2024-02-16T06:29:45.226Z,15.27
2024-02-16T06:32:13.595Z,16.63
2024-02-16T06:34:40.193Z,16.13
2024-02-16T06:37:06.702Z,14.43
2024-02-16T06:39:33.322Z,15.97
2024-02-16T06:42:00.574Z,15.93
2024-02-16T06:44:27.100Z,16.73
2024-02-16T06:46:53.586Z,16.30
2024-02-16T06:49:20.165Z,15.33
2024-02-16T06:51:46.909Z,16.23
2024-02-16T06:54:13.793Z,15.70
2024-02-16T06:56:40.273Z,17.23
2024-02-16T06:59:06.719Z,14.17
2024-02-16T07:01:33.245Z,12.13
2024-02-16T07:03:59.807Z,15.23
2024-02-16T07:06:27.341Z,15.50
2024-02-16T07:08:54.023Z,16.03
2024-02-16T07:11:21.867Z,13.23
2024-02-16T07:13:48.382Z,12.70
2024-02-16T07:16:15.097Z,14.10
2024-02-16T07:18:43.186Z,14.30
2024-02-16T07:21:10.446Z,13.57
2024-02-16T07:23:36.985Z,12.13
2024-02-16T07:26:06.569Z,12.00
2024-02-16T07:28:33.875Z,13.93
2024-02-16T07:31:00.359Z,14.67
2024-02-16T07:33:29.337Z,13.77
2024-02-16T07:35:56.504Z,11.30
2024-02-16T07:38:23.031Z,12.43
2024-02-16T07:40:51.533Z,13.17
2024-02-16T07:43:18.917Z,14.83
2024-02-16T07:45:45.654Z,13.80
2024-02-16T07:48:12.300Z,14.80
2024-02-16T07:50:38.889Z,14.37
2024-02-16T07:53:05.498Z,12.03
2024-02-16T07:55:32.073Z,13.40
2024-02-16T07:57:58.702Z,11.68
2024-02-16T08:00:27.483Z,11.80
2024-02-16T08:02:54.514Z,12.32
2024-02-16T08:05:21.172Z,13.15
2024-02-16T08:07:51.020Z,11.50
2024-02-16T08:10:21.942Z,10.43
2024-02-16T08:12:48.822Z,10.48
2024-02-16T08:15:15.329Z,10.63
2024-02-16T08:17:41.840Z,11.15
2024-02-16T08:20:12.080Z,11.27
2024-02-16T08:22:39.054Z,9.05
2024-02-16T08:25:06.541Z,11.10
2024-02-16T08:27:33.482Z,10.95
2024-02-16T08:30:00.183Z,10.13
2024-02-16T08:32:26.719Z,10.50
2024-02-16T08:34:53.677Z,10.80
2024-02-16T08:37:20.268Z,11.95
2024-02-16T08:39:46.888Z,10.40
2024-02-16T08:42:13.472Z,10.75
2024-02-16T08:44:41.556Z,10.25
2024-02-16T08:47:08.662Z,10.25
2024-02-16T08:49:36.195Z,10.07
2024-02-16T08:52:02.953Z,10.90
2024-02-16T08:54:29.442Z,10.63
2024-02-16T08:56:56.244Z,10.30
2024-02-16T08:59:22.942Z,10.82
2024-02-16T09:01:49.349Z,11.65
2024-02-16T09:04:16.848Z,10.65
2024-02-16T09:06:43.616Z,9.18
2024-02-16T09:09:10.363Z,8.48
2024-02-16T09:11:36.997Z,10.07
2024-02-16T09:14:04.573Z,9.75
2024-02-16T09:16:31.452Z,8.15
2024-02-16T09:19:00.161Z,8.00
2024-02-16T09:21:29.459Z,8.63
2024-02-16T09:23:59.483Z,8.85
2024-02-16T09:26:27.862Z,10.30
2024-02-16T09:28:54.384Z,9.68
2024-02-16T09:31:20.817Z,9.70
2024-02-16T09:33:47.594Z,9.75
2024-02-16T09:36:14.201Z,10.05
2024-02-16T09:38:40.731Z,9.18
2024-02-16T09:41:07.847Z,9.88
2024-02-16T09:43:34.706Z,8.88
2024-02-16T09:46:01.241Z,10.25
2024-02-16T09:48:28.964Z,10.05
2024-02-16T09:50:57.626Z,9.75
2024-02-16T09:53:26.417Z,9.65
2024-02-16T09:55:53.124Z,9.15
2024-02-16T09:58:20.210Z,9.40
2024-02-16T10:00:50.997Z,9.48
2024-02-16T10:03:30.604Z,8.20
2024-02-16T10:06:12.037Z,8.73
2024-02-16T10:08:57.943Z,8.02
2024-02-16T10:11:30.251Z,8.98
2024-02-16T10:14:05.177Z,6.45
2024-02-16T10:16:32.627Z,6.90
2024-02-16T10:19:07.641Z,8.48
2024-02-16T10:21:35.213Z,8.95
2024-02-16T10:24:08.909Z,7.57
2024-02-16T10:26:39.308Z,8.85
2024-02-16T10:29:18.965Z,7.90
2024-02-16T10:31:45.623Z,8.68
2024-02-16T10:34:12.847Z,9.18
2024-02-16T10:36:40.447Z,8.90
2024-02-16T10:39:09.177Z,8.68
2024-02-16T10:41:37.609Z,8.25
2024-02-16T10:44:05.301Z,9.05
2024-02-16T10:46:32.702Z,9.55
2024-02-16T10:48:59.905Z,8.75
2024-02-16T10:51:35.435Z,9.43
2024-02-16T10:54:02.649Z,8.52
2024-02-16T10:56:36.583Z,8.70
2024-02-16T10:59:08.594Z,9.65
2024-02-16T11:01:43.150Z,8.70
2024-02-16T11:04:12.934Z,8.50
2024-02-16T11:07:01.056Z,8.85
2024-02-16T11:09:34.685Z,7.72
2024-02-16T11:12:03.510Z,8.25
2024-02-16T11:14:37.460Z,7.93
2024-02-16T11:17:09.999Z,6.38
2024-02-16T11:19:36.991Z,5.53
2024-02-16T11:22:10.012Z,7.32
2024-02-16T11:24:37.722Z,6.97
2024-02-16T11:27:06.121Z,5.93
2024-02-16T11:29:34.887Z,6.85
2024-02-16T11:32:03.685Z,6.88
2024-02-16T11:34:31.391Z,6.72
2024-02-16T11:36:59.107Z,7.95
2024-02-16T11:39:27.539Z,7.05
2024-02-16T11:42:02.842Z,5.38
2024-02-16T11:44:37.283Z,6.25
2024-02-16T11:47:04.439Z,4.60
2024-02-16T11:49:31.419Z,6.18
2024-02-16T11:52:00.798Z,6.97
2024-02-16T11:54:27.571Z,6.90
2024-02-16T11:56:54.257Z,7.03
2024-02-16T11:59:20.930Z,6.90
2024-02-16T12:01:58.340Z,6.88
2024-02-16T12:04:29.516Z,7.35
2024-02-16T12:07:04.427Z,6.50
2024-02-16T12:09:35.651Z,7.07
2024-02-16T12:12:02.882Z,6.10
2024-02-16T12:14:29.359Z,6.38
2024-02-16T12:16:59.702Z,7.68
2024-02-16T12:19:26.906Z,7.82
2024-02-16T12:21:54.789Z,7.82
2024-02-16T12:24:23.430Z,7.03
2024-02-16T12:26:50.455Z,7.80
2024-02-16T12:29:17.912Z,6.82
2024-02-16T12:31:50.253Z,7.72
2024-02-16T12:34:16.930Z,7.68
2024-02-16T12:36:47.288Z,7.50
2024-02-16T12:39:17.225Z,7.68
2024-02-16T12:41:44.906Z,7.80
2024-02-16T12:44:11.417Z,6.78
2024-02-16T12:46:39.872Z,7.18
2024-02-16T12:49:06.442Z,6.72
2024-02-16T12:51:33.038Z,7.05
2024-02-16T12:54:01.246Z,7.60
2024-02-16T12:56:27.748Z,7.00
2024-02-16T12:58:54.200Z,7.72
2024-02-16T13:01:26.055Z,6.80
2024-02-16T13:03:53.572Z,7.28
2024-02-16T13:06:23.151Z,6.22
2024-02-16T13:08:51.865Z,6.65
2024-02-16T13:11:18.514Z,5.88
2024-02-16T13:13:44.966Z,5.57
2024-02-16T13:16:11.512Z,7.13
2024-02-16T13:18:38.195Z,6.85
2024-02-16T13:21:05.082Z,6.40
2024-02-16T13:23:32.194Z,5.43
2024-02-16T13:25:58.897Z,7.32
2024-02-16T13:28:25.384Z,6.65
2024-02-16T13:30:52.120Z,6.20
2024-02-16T13:33:18.671Z,5.88
2024-02-16T13:35:45.173Z,5.63
2024-02-16T13:38:11.548Z,6.03
2024-02-16T13:40:38.018Z,7.07
2024-02-16T13:43:05.867Z,6.05
2024-02-16T13:45:52.818Z,6.35
2024-02-16T13:48:20.409Z,5.32
2024-02-16T13:50:50.706Z,4.88
2024-02-16T13:53:21.242Z,5.53
2024-02-16T13:55:48.488Z,4.95
2024-02-16T13:58:15.062Z,4.85
2024-02-16T14:00:41.901Z,5.85
2024-02-16T14:03:11.423Z,5.03
2024-02-16T14:05:39.341Z,5.30
2024-02-16T14:08:09.131Z,5.15
2024-02-16T14:10:36.320Z,5.53
2024-02-16T14:13:02.947Z,5.15
2024-02-16T14:15:32.496Z,5.13
2024-02-16T14:18:00.422Z,4.07
2024-02-16T14:20:28.063Z,5.47
2024-02-16T14:22:54.618Z,4.97
2024-02-16T14:25:21.165Z,4.95
2024-02-16T14:27:47.961Z,5.53
2024-02-16T14:30:14.847Z,5.35
2024-02-16T14:32:42.316Z,5.55
2024-02-16T14:35:09.532Z,5.47
2024-02-16T14:37:36.715Z,5.63
2024-02-16T14:40:04.676Z,5.78
2024-02-16T14:42:31.169Z,5.57
2024-02-16T14:44:57.783Z,5.75
2024-02-16T14:47:24.369Z,5.53
2024-02-16T14:49:50.840Z,6.18
2024-02-16T14:52:17.389Z,6.30
2024-02-16T14:54:44.103Z,6.53
2024-02-16T14:57:11.161Z,6.38
2024-02-16T14:59:37.606Z,6.70
2024-02-16T15:02:04.196Z,6.60
2024-02-16T15:04:31.828Z,6.30
2024-02-16T15:06:58.427Z,6.78
2024-02-16T15:09:25.005Z,5.78
2024-02-16T15:11:51.634Z,5.97
2024-02-16T15:14:20.405Z,5.28
2024-02-16T15:16:47.338Z,5.05
2024-02-16T15:19:13.974Z,5.88
2024-02-16T15:21:40.670Z,5.55
2024-02-16T15:24:07.502Z,5.95
2024-02-16T15:26:33.965Z,5.85
2024-02-16T15:29:00.427Z,5.95
2024-02-16T15:31:26.834Z,5.78
2024-02-16T15:33:53.634Z,5.32
2024-02-16T15:36:20.332Z,4.40
2024-02-16T15:38:46.816Z,4.68
2024-02-16T15:41:14.636Z,3.30
2024-02-16T15:43:41.072Z,4.22
2024-02-16T15:46:07.504Z,4.93
2024-02-16T15:48:34.027Z,4.47
2024-02-16T15:51:01.033Z,5.63
2024-02-16T15:53:27.722Z,4.75
2024-02-16T15:55:54.144Z,5.60
2024-02-16T15:58:20.591Z,5.10
2024-02-16T16:00:47.166Z,5.22
2024-02-16T16:03:13.632Z,5.45
2024-02-16T16:05:40.163Z,4.45
2024-02-16T16:08:06.795Z,5.15
2024-02-16T16:10:33.232Z,5.78
2024-02-16T16:13:02.639Z,5.18
2024-02-16T16:15:29.216Z,5.53
2024-02-16T16:17:55.810Z,5.38
2024-02-16T16:20:22.492Z,5.70
2024-02-16T16:22:49.028Z,5.55
2024-02-16T16:25:15.489Z,5.20
2024-02-16T16:27:46.297Z,5.57
2024-02-16T16:30:13.715Z,5.63
2024-02-16T16:32:40.902Z,6.18
2024-02-16T16:35:10.246Z,5.35
2024-02-16T16:37:37.374Z,5.05
2024-02-16T16:40:04.478Z,5.35
2024-02-16T16:42:32.795Z,5.25
2024-02-16T16:45:00.726Z,4.13
2024-02-16T16:47:27.773Z,4.13
2024-02-16T16:49:54.972Z,4.72
2024-02-16T16:52:21.586Z,4.13
2024-02-16T16:54:48.066Z,3.45
2024-02-16T16:57:14.642Z,5.00
2024-02-16T16:59:41.106Z,2.92
2024-02-16T17:02:08.465Z,3.00
2024-02-16T17:04:35.329Z,4.63
2024-02-16T17:07:02.115Z,3.00
2024-02-16T17:09:28.633Z,4.65
2024-02-16T17:11:57.070Z,4.57
2024-02-16T17:14:25.537Z,4.20
2024-02-16T17:16:52.230Z,4.25
2024-02-16T17:19:19.022Z,5.13
2024-02-16T17:21:45.699Z,4.95
2024-02-16T17:24:12.247Z,3.50
2024-02-16T17:26:38.903Z,4.93
2024-02-16T17:29:05.793Z,3.22
2024-02-16T17:31:32.346Z,5.10
2024-02-16T17:33:58.887Z,5.57
2024-02-16T17:36:25.464Z,4.03
2024-02-16T17:38:52.289Z,4.60
2024-02-16T17:41:23.144Z,3.35
2024-02-16T17:43:49.662Z,5.60
2024-02-16T17:46:16.846Z,5.85
2024-02-16T17:48:43.731Z,6.13
2024-02-16T17:51:11.301Z,6.13
2024-02-16T17:53:39.085Z,6.18
2024-02-16T17:56:08.751Z,4.63
2024-02-16T17:58:35.285Z,4.22
2024-02-16T18:01:01.918Z,4.97
2024-02-16T18:03:29.957Z,5.78
2024-02-16T18:05:56.888Z,5.40
2024-02-16T18:08:23.576Z,5.70
2024-02-16T18:10:50.041Z,5.97
2024-02-16T18:13:21.271Z,6.05
2024-02-16T18:15:49.896Z,4.55
2024-02-16T18:18:17.338Z,6.43
2024-02-16T18:20:45.075Z,6.00
2024-02-16T18:23:11.640Z,5.47
2024-02-16T18:25:38.052Z,6.30
2024-02-16T18:28:04.741Z,5.95
2024-02-16T18:30:31.273Z,6.03
2024-02-16T18:32:57.972Z,7.20
2024-02-16T18:35:24.483Z,7.55
2024-02-16T18:37:51.391Z,7.60
2024-02-16T18:40:17.877Z,9.13
2024-02-16T18:42:44.450Z,9.07
2024-02-16T18:45:11.092Z,7.45
2024-02-16T18:47:38.202Z,6.40
2024-02-16T18:50:05.943Z,6.18
2024-02-16T18:52:33.515Z,5.68
2024-02-16T18:55:00.119Z,5.63
2024-02-16T18:57:26.845Z,5.18
2024-02-16T18:59:53.382Z,6.25
2024-02-16T19:02:19.774Z,6.78
2024-02-16T19:04:46.381Z,8.10
2024-02-16T19:07:14.185Z,8.73
2024-02-16T19:09:40.766Z,7.65
2024-02-16T19:12:08.599Z,6.82
2024-02-16T19:14:35.183Z,6.57
2024-02-16T19:17:01.632Z,6.43
2024-02-16T19:19:31.335Z,5.72
2024-02-16T19:21:57.941Z,6.00
2024-02-16T19:24:32.836Z,6.40
2024-02-16T19:27:04.611Z,5.25
2024-02-16T19:29:31.186Z,4.65
2024-02-16T19:31:57.599Z,7.00
2024-02-16T19:34:25.919Z,6.95
2024-02-16T19:36:52.700Z,5.82
2024-02-16T19:39:19.158Z,6.60
2024-02-16T19:41:47.287Z,5.30
2024-02-16T19:44:18.723Z,3.83
2024-02-16T19:46:46.567Z,6.68
2024-02-16T19:49:13.350Z,4.20
2024-02-16T19:51:39.906Z,5.93
2024-02-16T19:54:06.463Z,6.65
2024-02-16T19:56:33.041Z,5.60
2024-02-16T19:58:59.482Z,3.70
2024-02-16T20:01:26.257Z,4.55
2024-02-16T20:03:52.826Z,4.22
2024-02-16T20:06:19.377Z,7.80
2024-02-16T20:08:46.040Z,8.57
2024-02-16T20:11:13.066Z,10.27
2024-02-16T20:13:39.582Z,8.45
2024-02-16T20:16:06.564Z,8.07
2024-02-16T20:18:33.093Z,7.47
2024-02-16T20:20:59.780Z,8.65
2024-02-16T20:23:26.202Z,7.72
2024-02-16T20:25:52.661Z,7.45
2024-02-16T20:28:19.148Z,7.90
2024-02-16T20:30:45.745Z,7.88
2024-02-16T20:33:13.009Z,9.00
2024-02-16T20:35:40.878Z,8.73
2024-02-16T20:38:07.311Z,11.05
2024-02-16T20:40:33.778Z,9.60
2024-02-16T20:43:00.324Z,9.82
2024-02-16T20:45:27.206Z,11.25
2024-02-16T20:47:53.882Z,10.80
2024-02-16T20:50:20.437Z,9.15
2024-02-16T20:52:46.943Z,10.05
2024-02-16T20:55:13.422Z,9.57
2024-02-16T20:57:39.999Z,8.73
2024-02-16T21:00:12.446Z,10.40
2024-02-16T21:02:39.611Z,8.85
2024-02-16T21:05:06.348Z,9.27
2024-02-16T21:07:33.090Z,9.98
2024-02-16T21:09:59.589Z,8.55
2024-02-16T21:12:26.146Z,8.30
2024-02-16T21:14:52.893Z,5.40
2024-02-16T21:17:19.347Z,7.35
2024-02-16T21:19:46.418Z,6.75
2024-02-16T21:22:13.461Z,5.93
2024-02-16T21:24:40.327Z,7.75
2024-02-16T21:27:06.857Z,8.13
2024-02-16T21:29:33.375Z,7.07
2024-02-16T21:31:59.843Z,7.05
2024-02-16T21:34:26.456Z,6.32
2024-02-16T21:36:55.255Z,5.38
2024-02-16T21:39:22.052Z,5.38
2024-02-16T21:41:48.602Z,6.65
2024-02-16T21:44:14.995Z,5.57
2024-02-16T21:46:42.489Z,4.25
2024-02-16T21:49:09.734Z,7.38
2024-02-16T21:51:38.279Z,5.65
2024-02-16T21:54:06.703Z,4.60
2024-02-16T21:56:33.749Z,7.50
2024-02-16T21:59:01.329Z,8.57
2024-02-16T22:01:28.607Z,9.32
2024-02-16T22:03:55.658Z,10.48
2024-02-16T22:06:27.560Z,10.98
2024-02-16T22:08:54.802Z,10.32
2024-02-16T22:11:22.593Z,8.40
2024-02-16T22:13:50.222Z,8.45
2024-02-16T22:16:16.887Z,11.15
2024-02-16T22:18:45.693Z,9.95
2024-02-16T22:21:13.158Z,10.05
2024-02-16T22:23:40.616Z,9.90
2024-02-16T22:26:08.682Z,9.52
2024-02-16T22:28:35.673Z,8.40
2024-02-16T22:31:02.229Z,8.98
2024-02-16T22:33:29.406Z,8.55
2024-02-16T22:35:58.720Z,7.80
2024-02-16T22:38:25.445Z,7.95
2024-02-16T22:40:52.265Z,8.23
2024-02-16T22:43:18.752Z,9.38
2024-02-16T22:45:45.289Z,8.35
2024-02-16T22:48:14.898Z,9.48
2024-02-16T22:50:42.900Z,8.75
2024-02-16T22:53:10.205Z,8.43
2024-02-16T22:55:40.162Z,7.90
2024-02-16T22:58:09.225Z,8.10
2024-02-16T23:00:41.041Z,8.18
2024-02-16T23:03:10.830Z,8.20
2024-02-16T23:05:40.176Z,8.32
2024-02-16T23:08:08.393Z,7.30
2024-02-16T23:10:35.598Z,7.25
2024-02-16T23:13:03.345Z,7.65
2024-02-16T23:15:30.640Z,6.85
2024-02-16T23:17:57.282Z,7.68
2024-02-16T23:20:23.959Z,7.50
2024-02-16T23:23:10.757Z,7.35
2024-02-16T23:25:45.297Z,6.78
2024-02-16T23:28:15.942Z,7.67
2024-02-16T23:30:43.249Z,6.70
2024-02-16T23:33:11.637Z,7.50
2024-02-16T23:35:38.996Z,4.32
2024-02-16T23:38:05.483Z,5.65
2024-02-16T23:40:32.857Z,5.60
2024-02-16T23:42:59.375Z,3.60
2024-02-16T23:45:26.278Z,7.03
2024-02-16T23:47:53.035Z,7.93
2024-02-16T23:50:20.387Z,8.90
2024-02-16T23:52:46.832Z,8.95
2024-02-16T23:55:13.360Z,8.77
2024-02-16T23:57:39.847Z,10.38
